createdAt,value
2023-10-11T00:00:47.418Z,100660.69
2023-10-11T00:03:19.410Z,100659.84
2023-10-11T00:05:49.546Z,100666.25
2023-10-11T00:08:20.087Z,100661.13
2023-10-11T00:10:51.222Z,100661.13
2023-10-11T00:13:20.053Z,100665.59
2023-10-11T00:15:51.580Z,100669.00
2023-10-11T00:18:20.343Z,100662.09
2023-10-11T00:20:51.849Z,100677.38
2023-10-11T00:23:23.794Z,100671.28
2023-10-11T00:25:53.223Z,100653.69
2023-10-11T00:28:24.853Z,100670.25
2023-10-11T00:30:57.104Z,100658.09
2023-10-11T00:33:37.572Z,100653.56
2023-10-11T00:36:06.338Z,100653.28
2023-10-11T00:38:44.478Z,100655.41
2023-10-11T00:41:18.780Z,100652.19
2023-10-11T00:43:51.206Z,100650.50
2023-10-11T00:46:23.713Z,100643.75
2023-10-11T00:48:56.624Z,100649.13
2023-10-11T00:51:28.315Z,100645.75
2023-10-11T00:53:57.261Z,100645.94
2023-10-11T00:56:30.285Z,100640.34
2023-10-11T00:58:58.332Z,100637.06
2023-10-11T01:01:28.019Z,100634.44
2023-10-11T01:03:56.784Z,100621.84
2023-10-11T01:06:26.982Z,100622.81
2023-10-11T01:08:55.284Z,100621.34
2023-10-11T01:11:24.046Z,100619.75
2023-10-11T01:13:53.139Z,100620.59
2023-10-11T01:16:25.613Z,100622.69
2023-10-11T01:18:55.071Z,100617.28
2023-10-11T01:21:24.328Z,100622.34
2023-10-11T01:23:52.131Z,100626.81
2023-10-11T01:26:22.739Z,100622.50
2023-10-11T01:28:52.466Z,100618.91
2023-10-11T01:31:20.626Z,100628.28
2023-10-11T01:33:50.615Z,100618.91
2023-10-11T01:36:22.732Z,100625.25
2023-10-11T01:38:52.322Z,100615.56
2023-10-11T01:41:22.677Z,100611.31
2023-10-11T01:43:51.963Z,100609.97
2023-10-11T01:46:26.525Z,100618.81
2023-10-11T01:48:55.982Z,100619.34
2023-10-11T01:51:27.446Z,100613.66
2023-10-11T01:53:57.883Z,100602.41
2023-10-11T01:56:27.419Z,100611.19
2023-10-11T01:58:58.143Z,100610.34
2023-10-11T02:01:28.326Z,100598.31
2023-10-11T02:04:00.833Z,100605.81
2023-10-11T02:06:33.600Z,100596.28
2023-10-11T02:09:03.901Z,100601.94
2023-10-11T02:11:31.708Z,100606.72
2023-10-11T02:14:00.486Z,100603.25
2023-10-11T02:16:31.964Z,100611.09
2023-10-11T02:19:01.212Z,100603.09
2023-10-11T02:21:30.702Z,100608.72
2023-10-11T02:24:00.155Z,100612.53
2023-10-11T02:26:31.211Z,100604.56
2023-10-11T02:29:01.727Z,100602.06
2023-10-11T02:31:33.353Z,100609.53
2023-10-11T02:34:13.981Z,100614.81
2023-10-11T02:36:44.184Z,100606.16
2023-10-11T02:39:19.663Z,100610.31
2023-10-11T02:41:51.980Z,100606.50
2023-10-11T02:44:24.270Z,100592.00
2023-10-11T02:46:52.554Z,100604.53
2023-10-11T02:49:24.565Z,100596.22
2023-10-11T02:51:57.491Z,100601.38
2023-10-11T02:54:34.943Z,100602.13
2023-10-11T02:57:07.729Z,100599.56
2023-10-11T02:59:38.254Z,100598.59
2023-10-11T03:03:11.574Z,100606.06
2023-10-11T03:05:39.347Z,100599.69
2023-10-11T03:08:15.911Z,100601.78
2023-10-11T03:10:46.891Z,100601.09
2023-10-11T03:13:24.909Z,100604.81
2023-10-11T03:15:56.007Z,100597.09
2023-10-11T03:18:26.416Z,100595.41
2023-10-11T03:21:09.893Z,100597.72
2023-10-11T03:23:44.512Z,100589.56
2023-10-11T03:26:18.073Z,100593.00
2023-10-11T03:28:58.062Z,100580.38
2023-10-11T03:31:28.880Z,100585.16
2023-10-11T03:33:57.578Z,100582.53
2023-10-11T03:36:32.313Z,100581.84
2023-10-11T03:39:10.122Z,100586.19
2023-10-11T03:41:45.970Z,100584.75
2023-10-11T03:44:18.670Z,100586.72
2023-10-11T03:46:48.643Z,100583.66
2023-10-11T03:49:37.857Z,100573.50
2023-10-11T03:52:06.345Z,100579.94
2023-10-11T03:54:37.964Z,100581.97
2023-10-11T03:57:06.942Z,100582.72
2023-10-11T03:59:39.868Z,100568.56
2023-10-11T04:02:11.515Z,100582.53
2023-10-11T04:04:41.449Z,100578.56
2023-10-11T04:07:13.754Z,100574.41
2023-10-11T04:09:45.637Z,100581.03
2023-10-11T04:12:14.264Z,100569.69
2023-10-11T04:14:45.719Z,100576.56
2023-10-11T04:17:27.543Z,100581.72
2023-10-11T04:20:01.480Z,100568.66
2023-10-11T04:22:32.567Z,100570.88
2023-10-11T04:25:08.176Z,100571.38
2023-10-11T04:27:49.230Z,100565.53
2023-10-11T04:30:25.368Z,100561.59
2023-10-11T04:32:57.396Z,100564.91
2023-10-11T04:35:27.122Z,100566.13
2023-10-11T04:38:02.618Z,100567.97
2023-10-11T04:40:42.227Z,100568.66
2023-10-11T04:43:21.681Z,100567.97
2023-10-11T04:45:56.278Z,100571.25
2023-10-11T04:48:35.173Z,100563.34
2023-10-11T04:51:22.810Z,100564.16
2023-10-11T04:53:58.222Z,100576.94
2023-10-11T04:56:45.207Z,100574.19
2023-10-11T04:59:19.049Z,100569.59
2023-10-11T05:02:00.067Z,100571.56
2023-10-11T05:04:33.971Z,100575.44
2023-10-11T05:07:09.007Z,100578.06
2023-10-11T05:09:41.274Z,100581.03
2023-10-11T05:12:20.378Z,100580.03
2023-10-11T05:15:02.925Z,100581.59
2023-10-11T05:17:43.019Z,100574.59
2023-10-11T05:20:46.226Z,100588.50
2023-10-11T05:23:15.086Z,100589.63
2023-10-11T05:25:57.656Z,100599.00
2023-10-11T05:28:28.322Z,100589.41
2023-10-11T05:31:23.613Z,100593.78
2023-10-11T05:34:30.617Z,100595.75
2023-10-11T05:37:15.714Z,100602.88
2023-10-11T05:40:01.323Z,100591.81
2023-10-11T05:42:46.464Z,100600.34
2023-10-11T05:45:32.075Z,100601.13
2023-10-11T05:48:19.473Z,100606.56
2023-10-11T05:50:56.905Z,100605.34
2023-10-11T05:53:26.976Z,100606.34
2023-10-11T05:55:55.697Z,100611.41
2023-10-11T05:58:23.971Z,100605.28
2023-10-11T06:00:54.678Z,100597.72
2023-10-11T06:03:26.252Z,100597.59
2023-10-11T06:05:56.163Z,100594.47
2023-10-11T06:08:25.669Z,100596.25
2023-10-11T06:10:57.442Z,100587.34
2023-10-11T06:13:25.256Z,100590.41
2023-10-11T06:16:01.247Z,100592.81
2023-10-11T06:18:44.840Z,100583.06
2023-10-11T06:21:32.120Z,100586.25
2023-10-11T06:24:01.073Z,100590.09
2023-10-11T06:26:51.585Z,100594.94
2023-10-11T06:29:24.110Z,100588.66
2023-10-11T06:32:05.218Z,100596.31
2023-10-11T06:34:46.432Z,100589.97
2023-10-11T06:37:18.339Z,100601.94
2023-10-11T06:40:04.061Z,100614.00
2023-10-11T06:42:33.254Z,100608.78
2023-10-11T06:45:04.615Z,100608.22
2023-10-11T06:47:35.323Z,100606.84
2023-10-11T06:50:12.975Z,100604.63
2023-10-11T06:52:45.797Z,100602.28
2023-10-11T06:55:19.620Z,100606.94
2023-10-11T06:57:52.426Z,100603.78
2023-10-11T07:00:26.299Z,100607.75
2023-10-11T07:03:06.907Z,100615.09
2023-10-11T07:05:41.743Z,100617.28
2023-10-11T07:08:12.032Z,100607.22
2023-10-11T07:10:46.560Z,100601.50
2023-10-11T07:13:15.522Z,100605.81
2023-10-11T07:15:45.148Z,100596.09
2023-10-11T07:18:22.509Z,100594.16
2023-10-11T07:20:59.093Z,100593.81
2023-10-11T07:23:36.518Z,100596.69
2023-10-11T07:26:25.129Z,100608.69
2023-10-11T07:28:53.543Z,100605.38
2023-10-11T07:31:22.494Z,100602.41
2023-10-11T07:33:56.456Z,100609.00
2023-10-11T07:36:26.448Z,100611.06
2023-10-11T07:38:57.729Z,100607.34
2023-10-11T07:41:29.677Z,100597.84
2023-10-11T07:43:57.796Z,100593.44
2023-10-11T07:46:26.320Z,100594.94
2023-10-11T07:49:02.444Z,100588.97
2023-10-11T07:51:31.380Z,100585.16
2023-10-11T07:54:04.062Z,100583.75
2023-10-11T07:56:37.090Z,100575.88
2023-10-11T07:59:10.067Z,100577.03
2023-10-11T08:01:44.741Z,100581.13
2023-10-11T08:04:14.094Z,100579.44
2023-10-11T08:06:42.433Z,100571.44
2023-10-11T08:09:20.437Z,100572.66
2023-10-11T08:11:54.282Z,100573.47
2023-10-11T08:14:23.969Z,100576.44
2023-10-11T08:16:52.503Z,100579.97
2023-10-11T08:19:21.251Z,100565.25
2023-10-11T08:21:55.849Z,100568.00
2023-10-11T08:24:29.057Z,100568.91
2023-10-11T08:27:06.991Z,100565.03
2023-10-11T08:29:39.462Z,100560.31
2023-10-11T08:32:14.186Z,100565.78
2023-10-11T08:34:47.478Z,100572.41
2023-10-11T08:37:15.917Z,100562.66
2023-10-11T08:39:45.619Z,100566.53
2023-10-11T08:42:16.020Z,100551.69
2023-10-11T08:44:46.730Z,100556.97
2023-10-11T08:47:20.464Z,100555.06
2023-10-11T08:49:50.808Z,100566.22
2023-10-11T08:52:23.694Z,100550.72
2023-10-11T08:54:53.616Z,100554.19
2023-10-11T08:57:24.784Z,100555.84
2023-10-11T08:59:57.759Z,100546.97
2023-10-11T09:02:28.083Z,100542.41
2023-10-11T09:05:07.887Z,100539.41
2023-10-11T09:07:39.695Z,100534.06
2023-10-11T09:10:27.109Z,100534.97
2023-10-11T09:13:01.528Z,100525.78
2023-10-11T09:15:42.418Z,100521.34
2023-10-11T09:18:16.533Z,100522.34
2023-10-11T09:20:51.116Z,100515.13
2023-10-11T09:23:22.151Z,100506.59
2023-10-11T09:26:00.664Z,100511.38
2023-10-11T09:28:29.185Z,100513.44
2023-10-11T09:31:12.956Z,100504.94
2023-10-11T09:33:42.758Z,100505.84
2023-10-11T09:36:13.423Z,100506.09
2023-10-11T09:38:42.005Z,100504.31
2023-10-11T09:41:12.385Z,100508.47
2023-10-11T09:43:45.470Z,100495.31
2023-10-11T09:46:14.463Z,100491.75
2023-10-11T09:48:43.482Z,100494.19
2023-10-11T09:51:15.270Z,100488.81
2023-10-11T09:53:50.980Z,100482.84
2023-10-11T09:56:38.546Z,100477.06
2023-10-11T09:59:23.492Z,100481.13
2023-10-11T10:02:06.911Z,100478.38
2023-10-11T10:04:58.999Z,100480.44
2023-10-11T10:07:34.072Z,100482.38
2023-10-11T10:10:03.610Z,100484.09
2023-10-11T10:12:36.835Z,100486.91
2023-10-11T10:15:10.841Z,100473.53
2023-10-11T10:17:39.929Z,100478.16
2023-10-11T10:20:46.375Z,100458.09
2023-10-11T10:23:41.514Z,100457.69
2023-10-11T10:26:39.520Z,100459.34
2023-10-11T10:29:14.817Z,100454.59
2023-10-11T10:32:08.481Z,100443.25
2023-10-11T10:34:36.861Z,100447.59
2023-10-11T10:37:10.731Z,100437.22
2023-10-11T10:40:19.650Z,100425.94
2023-10-11T10:43:24.943Z,100413.50
2023-10-11T10:46:00.668Z,100405.59
2023-10-11T10:48:32.623Z,100404.91
2023-10-11T10:51:26.977Z,100402.19
2023-10-11T10:53:55.290Z,100398.50
2023-10-11T10:56:23.716Z,100399.81
2023-10-11T10:59:03.972Z,100395.03
2023-10-11T11:01:35.460Z,100392.16
2023-10-11T11:04:08.049Z,100394.91
2023-10-11T11:06:38.488Z,100394.53
2023-10-11T11:09:14.026Z,100398.03
2023-10-11T11:11:41.941Z,100400.19
2023-10-11T11:14:10.643Z,100393.19
2023-10-11T11:16:40.724Z,100381.25
2023-10-11T11:19:17.773Z,100385.88
2023-10-11T11:22:12.378Z,100378.88
2023-10-11T11:24:39.624Z,100380.13
2023-10-11T11:27:17.206Z,100372.75
2023-10-11T11:29:51.073Z,100375.84
2023-10-11T11:32:38.713Z,100367.06
2023-10-11T11:35:11.087Z,100358.84
2023-10-11T11:37:40.716Z,100347.59
2023-10-11T11:40:25.079Z,100341.63
2023-10-11T11:42:53.176Z,100337.94
2023-10-11T11:45:21.585Z,100331.19
2023-10-11T11:48:01.409Z,100327.47
2023-10-11T11:50:32.077Z,100332.19
2023-10-11T11:52:59.363Z,100326.84
2023-10-11T11:55:27.334Z,100315.75
2023-10-11T11:57:54.689Z,100306.25
2023-10-11T12:00:39.928Z,100320.91
2023-10-11T12:03:10.130Z,100315.53
2023-10-11T12:05:42.096Z,100317.78
2023-10-11T12:08:19.452Z,100315.06
2023-10-11T12:10:48.825Z,100308.16
2023-10-11T12:13:24.098Z,100305.41
2023-10-11T12:15:56.033Z,100310.47
2023-10-11T12:18:33.924Z,100305.47
2023-10-11T12:21:12.741Z,100307.16
2023-10-11T12:23:48.369Z,100302.34
2023-10-11T12:26:18.228Z,100304.50
2023-10-11T12:28:48.364Z,100306.47
2023-10-11T12:31:18.272Z,100296.16
2023-10-11T12:33:48.969Z,100288.47
2023-10-11T12:36:21.618Z,100293.00
2023-10-11T12:38:50.423Z,100301.66
2023-10-11T12:41:18.496Z,100294.84
2023-10-11T12:43:47.282Z,100299.16
2023-10-11T12:46:20.121Z,100300.16
2023-10-11T12:48:56.307Z,100282.09
2023-10-11T12:51:25.122Z,100277.59
2023-10-11T12:53:56.238Z,100281.66
2023-10-11T12:56:25.160Z,100276.84
2023-10-11T12:58:55.108Z,100278.81
2023-10-11T13:01:37.904Z,100272.59
2023-10-11T13:04:15.415Z,100268.44
2023-10-11T13:06:50.700Z,100272.94
2023-10-11T13:09:22.661Z,100271.97
2023-10-11T13:11:50.511Z,100277.81
2023-10-11T13:14:20.763Z,100272.97
2023-10-11T13:16:50.437Z,100267.44
2023-10-11T13:19:20.514Z,100252.06
2023-10-11T13:21:48.718Z,100255.25
2023-10-11T13:24:23.133Z,100255.94
2023-10-11T13:26:52.774Z,100263.31
2023-10-11T13:29:21.178Z,100261.66
2023-10-11T13:31:50.104Z,100266.00
2023-10-11T13:34:20.147Z,100256.63
2023-10-11T13:36:48.079Z,100263.78
2023-10-11T13:39:27.695Z,100261.31
2023-10-11T13:41:57.242Z,100265.13
2023-10-11T13:44:27.360Z,100261.13
2023-10-11T13:46:57.012Z,100256.47
2023-10-11T13:49:28.316Z,100267.47
2023-10-11T13:51:59.662Z,100268.59
2023-10-11T13:54:43.438Z,100259.94
2023-10-11T13:57:12.864Z,100259.47
2023-10-11T13:59:46.808Z,100246.78
2023-10-11T14:02:35.579Z,100236.63
2023-10-11T14:05:16.147Z,100243.47
2023-10-11T14:07:53.403Z,100239.13
2023-10-11T14:10:28.020Z,100231.16
2023-10-11T14:13:01.632Z,100234.94
2023-10-11T14:15:30.903Z,100233.97
2023-10-11T14:18:01.215Z,100224.47
2023-10-11T14:20:31.665Z,100225.00
2023-10-11T14:23:04.360Z,100224.47
2023-10-11T14:25:32.103Z,100217.81
2023-10-11T14:27:59.922Z,100228.28
2023-10-11T14:30:27.778Z,100225.31
2023-10-11T14:32:55.622Z,100222.97
2023-10-11T14:35:25.699Z,100214.97
2023-10-11T14:37:55.053Z,100222.16
2023-10-11T14:40:25.764Z,100225.13
2023-10-11T14:42:53.550Z,100222.97
2023-10-11T14:45:23.051Z,100225.44
2023-10-11T14:47:52.053Z,100223.72
2023-10-11T14:50:24.681Z,100230.66
2023-10-11T14:52:54.728Z,100238.31
2023-10-11T14:55:22.570Z,100222.34
2023-10-11T14:57:50.870Z,100234.97
2023-10-11T15:00:19.438Z,100221.00
2023-10-11T15:02:48.166Z,100219.78
2023-10-11T15:05:17.394Z,100229.09
2023-10-11T15:07:45.220Z,100232.34
2023-10-11T15:10:15.286Z,100231.81
2023-10-11T15:12:44.351Z,100238.59
2023-10-11T15:15:12.979Z,100244.69
2023-10-11T15:17:40.861Z,100248.38
2023-10-11T15:20:09.922Z,100250.13
2023-10-11T15:22:37.856Z,100244.41
2023-10-11T15:25:06.629Z,100255.34
2023-10-11T15:27:35.843Z,100245.31
2023-10-11T15:30:08.056Z,100243.34
2023-10-11T15:32:36.137Z,100249.22
2023-10-11T15:35:06.032Z,100239.56
2023-10-11T15:37:33.766Z,100253.81
2023-10-11T15:40:02.031Z,100248.41
2023-10-11T15:42:31.323Z,100239.59
2023-10-11T15:45:00.692Z,100252.53
2023-10-11T15:47:36.446Z,100257.00
2023-10-11T15:50:05.331Z,100255.72
2023-10-11T15:52:33.334Z,100258.47
2023-10-11T15:55:01.701Z,100245.63
2023-10-11T15:57:29.489Z,100258.59
2023-10-11T15:59:57.320Z,100268.16
2023-10-11T16:02:26.804Z,100264.34
2023-10-11T16:04:56.636Z,100260.84
2023-10-11T16:07:26.419Z,100262.09
2023-10-11T16:09:54.245Z,100251.91
2023-10-11T16:12:23.875Z,100268.44
2023-10-11T16:14:52.877Z,100271.41
2023-10-11T16:17:20.798Z,100275.53
2023-10-11T16:19:50.708Z,100281.81
2023-10-11T16:22:18.543Z,100276.06
2023-10-11T16:24:46.278Z,100278.69
2023-10-11T16:27:15.787Z,100273.69
2023-10-11T16:29:43.629Z,100271.88
2023-10-11T16:32:11.325Z,100270.31
2023-10-11T16:34:40.719Z,100282.25
2023-10-11T16:37:09.750Z,100281.88
2023-10-11T16:39:38.754Z,100273.19
2023-10-11T16:42:06.930Z,100281.81
2023-10-11T16:44:36.567Z,100272.69
2023-10-11T16:47:10.377Z,100284.19
2023-10-11T16:49:39.132Z,100270.31
2023-10-11T16:52:07.631Z,100282.00
2023-10-11T16:54:38.418Z,100281.03
2023-10-11T16:57:07.835Z,100269.75
2023-10-11T16:59:52.862Z,100281.09
2023-10-11T17:02:21.969Z,100274.84
2023-10-11T17:04:50.967Z,100266.25
2023-10-11T17:07:19.575Z,100276.94
2023-10-11T17:09:49.416Z,100280.53
2023-10-11T17:12:17.494Z,100288.03
2023-10-11T17:14:45.533Z,100285.06
2023-10-11T17:17:13.307Z,100291.31
2023-10-11T17:19:41.274Z,100285.59
2023-10-11T17:22:10.781Z,100279.59
2023-10-11T17:24:41.677Z,100285.50
2023-10-11T17:27:10.889Z,100287.31
2023-10-11T17:29:39.388Z,100280.50
2023-10-11T17:32:07.224Z,100285.72
2023-10-11T17:34:35.503Z,100290.66
2023-10-11T17:37:03.415Z,100291.03
2023-10-11T17:39:31.308Z,100294.91
2023-10-11T17:41:59.069Z,100295.38
2023-10-11T17:44:28.150Z,100291.25
2023-10-11T17:46:58.590Z,100296.91
2023-10-11T17:49:26.706Z,100292.66
2023-10-11T17:51:54.549Z,100297.50
2023-10-11T17:54:22.693Z,100292.31
2023-10-11T17:56:54.945Z,100298.81
2023-10-11T17:59:22.710Z,100302.09
2023-10-11T18:01:52.825Z,100290.78
2023-10-11T18:04:21.468Z,100295.59
2023-10-11T18:06:49.608Z,100296.38
2023-10-11T18:09:18.067Z,100298.03
2023-10-11T18:11:46.114Z,100296.47
2023-10-11T18:14:14.552Z,100293.72
2023-10-11T18:16:42.405Z,100297.41
2023-10-11T18:19:14.972Z,100299.34
2023-10-11T18:21:45.209Z,100298.38
2023-10-11T18:24:16.161Z,100299.44
2023-10-11T18:26:44.713Z,100307.56
2023-10-11T18:29:13.182Z,100312.97
2023-10-11T18:31:41.067Z,100316.50
2023-10-11T18:34:09.244Z,100312.63
2023-10-11T18:36:39.964Z,100317.88
2023-10-11T18:39:08.860Z,100314.44
2023-10-11T18:41:37.260Z,100312.53
2023-10-11T18:44:06.258Z,100305.56
2023-10-11T18:46:34.235Z,100304.09
2023-10-11T18:49:02.372Z,100306.31
2023-10-11T18:51:30.337Z,100302.44
2023-10-11T18:53:59.660Z,100303.72
2023-10-11T18:56:27.595Z,100302.66
2023-10-11T18:58:56.329Z,100301.94
2023-10-11T19:01:24.527Z,100304.09
2023-10-11T19:03:52.793Z,100301.59
2023-10-11T19:06:20.870Z,100297.03
2023-10-11T19:08:49.674Z,100293.41
2023-10-11T19:11:20.994Z,100291.63
2023-10-11T19:13:49.678Z,100291.31
2023-10-11T19:16:25.108Z,100292.09
2023-10-11T19:18:54.716Z,100294.88
2023-10-11T19:21:22.715Z,100299.19
2023-10-11T19:23:50.913Z,100298.00
2023-10-11T19:26:21.119Z,100299.56
2023-10-11T19:28:49.483Z,100303.28
2023-10-11T19:31:17.996Z,100298.59
2023-10-11T19:33:46.081Z,100297.16
2023-10-11T19:36:17.393Z,100301.47
2023-10-11T19:38:46.296Z,100294.75
2023-10-11T19:41:14.549Z,100303.28
2023-10-11T19:43:45.386Z,100301.97
2023-10-11T19:46:14.740Z,100294.53
2023-10-11T19:48:43.484Z,100296.72
2023-10-11T19:51:12.617Z,100296.69
2023-10-11T19:53:41.649Z,100301.25
2023-10-11T19:56:18.917Z,100296.47
2023-10-11T19:58:49.108Z,100302.19
2023-10-11T20:01:19.598Z,100290.94
2023-10-11T20:03:53.399Z,100297.88
2023-10-11T20:06:23.687Z,100294.03
2023-10-11T20:08:53.271Z,100299.66
2023-10-11T20:11:22.204Z,100304.22
2023-10-11T20:13:54.284Z,100298.81
2023-10-11T20:16:22.374Z,100299.16
2023-10-11T20:18:51.195Z,100289.00
2023-10-11T20:21:20.703Z,100279.16
2023-10-11T20:23:50.042Z,100281.56
2023-10-11T20:26:21.403Z,100284.94
2023-10-11T20:28:52.866Z,100282.97
2023-10-11T20:31:21.374Z,100284.75
2023-10-11T20:33:50.995Z,100285.00
2023-10-11T20:36:19.614Z,100298.00
2023-10-11T20:38:49.030Z,100295.22
2023-10-11T20:41:19.647Z,100292.53
2023-10-11T20:43:48.467Z,100288.44
2023-10-11T20:46:18.873Z,100288.44
2023-10-11T20:48:46.769Z,100286.09
2023-10-11T20:51:17.032Z,100286.69
2023-10-11T20:53:46.200Z,100281.16
2023-10-11T20:56:14.318Z,100282.56
2023-10-11T20:58:56.955Z,100279.63
2023-10-11T21:01:27.749Z,100284.63
2023-10-11T21:03:57.543Z,100278.94
2023-10-11T21:06:26.371Z,100271.41
2023-10-11T21:08:54.236Z,100261.59
2023-10-11T21:11:22.684Z,100273.16
2023-10-11T21:13:50.698Z,100276.38
2023-10-11T21:16:18.561Z,100279.94
2023-10-11T21:18:47.841Z,100278.13
2023-10-11T21:21:19.399Z,100273.09
2023-10-11T21:23:47.786Z,100276.25
2023-10-11T21:26:17.118Z,100271.69
2023-10-11T21:28:53.526Z,100280.66
2023-10-11T21:31:22.498Z,100264.38
2023-10-11T21:33:52.099Z,100263.78
2023-10-11T21:36:20.088Z,100261.41
2023-10-11T21:38:48.412Z,100256.47
2023-10-11T21:41:16.578Z,100262.06
2023-10-11T21:43:45.053Z,100262.75
2023-10-11T21:46:14.125Z,100266.28
2023-10-11T21:48:42.951Z,100266.22
2023-10-11T21:51:25.794Z,100263.28
2023-10-11T21:53:55.305Z,100258.19
2023-10-11T21:56:23.040Z,100260.63
2023-10-11T21:58:50.984Z,100252.53
2023-10-11T22:01:24.526Z,100262.56
2023-10-11T22:03:53.301Z,100252.53
2023-10-11T22:06:22.707Z,100250.25
2023-10-11T22:08:49.818Z,100244.84
2023-10-11T22:11:17.676Z,100241.22
2023-10-11T22:13:46.687Z,100240.84
2023-10-11T22:16:15.360Z,100243.38
2023-10-11T22:18:43.852Z,100237.31
2023-10-11T22:21:13.764Z,100247.13
2023-10-11T22:23:45.247Z,100248.50
2023-10-11T22:26:15.386Z,100243.13
2023-10-11T22:28:45.194Z,100245.66
2023-10-11T22:31:13.708Z,100242.47
2023-10-11T22:33:44.330Z,100237.50
2023-10-11T22:36:16.554Z,100233.06
2023-10-11T22:38:47.174Z,100226.78
2023-10-11T22:41:18.866Z,100229.09
2023-10-11T22:43:47.383Z,100229.19
2023-10-11T22:46:15.728Z,100232.78
2023-10-11T22:48:46.166Z,100238.38
2023-10-11T22:51:18.664Z,100228.59
2023-10-11T22:56:21.365Z,100245.41
2023-10-11T22:58:51.975Z,100234.28
2023-10-11T23:01:20.884Z,100245.94
2023-10-11T23:03:48.816Z,100242.16
2023-10-11T23:06:17.202Z,100246.19
2023-10-11T23:08:47.130Z,100242.38
2023-10-11T23:11:19.982Z,100244.25
2023-10-11T23:13:49.518Z,100249.22
2023-10-11T23:16:19.036Z,100241.97
2023-10-11T23:18:47.714Z,100246.19
2023-10-11T23:21:21.822Z,100252.00
2023-10-11T23:23:53.253Z,100260.59
2023-10-11T23:26:27.167Z,100258.19
2023-10-11T23:28:57.974Z,100258.72
2023-10-11T23:31:27.593Z,100259.03
2023-10-11T23:33:57.841Z,100257.97
2023-10-11T23:36:36.010Z,100256.72
2023-10-11T23:39:07.834Z,100248.81
2023-10-11T23:41:46.682Z,100252.63
2023-10-11T23:44:23.661Z,100254.09
2023-10-11T23:46:59.690Z,100261.53
2023-10-11T23:49:41.746Z,100260.56
2023-10-11T23:52:15.065Z,100261.94
2023-10-11T23:54:44.493Z,100260.78
2023-10-11T23:57:23.081Z,100262.88
2023-10-11T23:59:51.269Z,100263.09
